CheckWX is a tool to help pilots better visualize weather data.  It is not intended as a substitute for an official pre-flight weather briefing.

01:18:12 UTC

ENVA METAR
Trondheim , Værnes Airport
Trondheim, Norway
Current

28 mins ago

ENVA 190050Z 08003KT 360V140 CAVOK 06/M01 Q1037 RMK WIND 670FT 16004KT
Observed
Apr-19 @ 00:50 UTC
Wind
  • 080° at 3 KTS
Visibility
10,000+ meters
Flight Rules
VFR
Cloud Levels
  • Clear skies
Temperature
C / 43°F
Dewpoint
-1°C / 30°F
Humidity
61%
Altimeter
30.62" Hg
Pressure
1036.91 hPa
Previous

1 hour ago

ENVA 182350Z 11009KT CAVOK 07/M01 Q1037 RMK WIND 670FT 16009KT
Observed
Apr-18 @ 23:50 UTC
Wind
  • 110° at 9 KTS
Visibility
10,000+ meters
Flight Rules
VFR
Cloud Levels
  • Clear skies
Temperature
C / 45°F
Dewpoint
-1°C / 30°F
Humidity
57%
Altimeter
30.62" Hg
Pressure
1036.91 hPa
Previous

2 hours ago

ENVA 182250Z 12008KT CAVOK 08/M01 Q1037 RMK WIND 670FT 16010KT
Observed
Apr-18 @ 22:50 UTC
Wind
  • 120° at 8 KTS
Visibility
10,000+ meters
Flight Rules
VFR
Cloud Levels
  • Clear skies
Temperature
C / 46°F
Dewpoint
-1°C / 30°F
Humidity
53%
Altimeter
30.62" Hg
Pressure
1036.91 hPa